createdAt,value
2023-01-21T00:05:22.166Z,4.18
2023-01-21T00:10:25.348Z,7.97
2023-01-21T00:15:28.654Z,11.35
2023-01-21T00:20:32.158Z,3.53
2023-01-21T00:25:35.407Z,3.55
2023-01-21T00:35:41.531Z,12.07
2023-01-21T00:40:44.978Z,5.45
2023-01-21T00:45:48.668Z,4.57
2023-01-21T00:50:51.978Z,8.13
2023-01-21T00:55:59.929Z,4.95
2023-01-21T01:01:09.701Z,5.60
2023-01-21T01:06:26.318Z,6.68
2023-01-21T01:11:41.057Z,4.00
2023-01-21T01:16:44.317Z,2.50
2023-01-21T01:21:47.707Z,4.88
2023-01-21T01:32:17.437Z,3.65
2023-01-21T01:42:23.591Z,4.90
2023-01-21T01:47:41.518Z,2.85
2023-01-21T01:52:45.552Z,3.80
2023-01-21T01:57:52.753Z,5.43
2023-01-21T02:02:56.851Z,4.40
2023-01-21T02:08:01.188Z,6.32
2023-01-21T02:13:12.487Z,5.88
2023-01-21T02:18:46.178Z,6.93
2023-01-21T02:24:22.898Z,3.90
2023-01-21T02:29:47.718Z,5.65
2023-01-21T02:34:53.666Z,5.10
2023-01-21T02:40:11.504Z,3.45
2023-01-21T02:45:42.146Z,4.63
2023-01-21T02:50:49.402Z,3.17
2023-01-21T02:55:53.702Z,4.30
2023-01-21T03:01:34.361Z,4.45
2023-01-21T03:06:50.653Z,5.53
2023-01-21T03:12:15.928Z,3.45
2023-01-21T03:17:46.640Z,2.60
2023-01-21T03:22:56.840Z,5.63
2023-01-21T03:28:05.178Z,4.75
2023-01-21T03:33:11.404Z,10.90
2023-01-21T03:38:29.581Z,3.67
2023-01-21T03:43:33.063Z,2.58
2023-01-21T03:48:55.042Z,4.20
2023-01-21T03:54:00.373Z,3.20
2023-01-21T03:59:03.675Z,7.68
2023-01-21T04:04:06.952Z,4.28
2023-01-21T04:24:19.218Z,5.03
2023-01-21T04:29:22.467Z,8.15
2023-01-21T04:44:31.929Z,8.63
2023-01-21T04:54:37.951Z,4.97
2023-01-21T04:59:41.196Z,8.18
2023-01-21T05:09:47.574Z,7.28
2023-01-21T05:14:54.670Z,4.95
2023-01-21T05:19:59.405Z,7.82
2023-01-21T05:25:02.715Z,8.60
2023-01-21T05:30:07.009Z,6.38
2023-01-21T05:35:10.763Z,5.68
2023-01-21T05:40:18.338Z,6.60
2023-01-21T05:45:21.850Z,7.35
2023-01-21T06:00:31.557Z,9.65
2023-01-21T06:05:37.426Z,7.40
2023-01-21T06:10:41.126Z,6.65
2023-01-21T06:15:44.385Z,6.35
2023-01-21T06:20:48.077Z,13.52
2023-01-21T06:31:22.227Z,9.23
2023-01-21T06:36:25.682Z,4.82
2023-01-21T06:46:31.869Z,12.18
2023-01-21T06:51:35.916Z,10.45
2023-01-21T07:01:41.954Z,10.70
2023-01-21T07:06:55.017Z,8.32
2023-01-21T07:12:15.929Z,7.80
2023-01-21T07:17:19.021Z,9.02
2023-01-21T07:27:25.267Z,11.35
2023-01-21T07:32:28.543Z,8.63
2023-01-21T07:42:34.747Z,12.45
2023-01-21T07:47:38.256Z,8.27
2023-01-21T07:52:42.437Z,10.23
2023-01-21T08:02:51.346Z,7.75
2023-01-21T08:07:57.746Z,5.75
2023-01-21T08:13:01.111Z,6.28
2023-01-21T08:18:14.845Z,6.28
2023-01-21T08:23:33.658Z,12.98
2023-01-21T08:28:36.940Z,8.63
2023-01-21T08:33:41.505Z,14.38
2023-01-21T08:39:01.302Z,8.32
2023-01-21T08:44:20.488Z,10.82
2023-01-21T08:54:27.013Z,9.82
2023-01-21T08:59:30.252Z,7.07
2023-01-21T09:09:36.699Z,12.88
2023-01-21T09:14:41.360Z,10.02
2023-01-21T09:19:44.720Z,15.80
2023-01-21T09:24:48.325Z,9.10
2023-01-21T09:29:51.696Z,7.10
2023-01-21T09:35:04.821Z,10.40
2023-01-21T09:40:26.836Z,6.30
2023-01-21T09:45:31.224Z,15.10
2023-01-21T09:50:38.423Z,6.45
2023-01-21T09:55:46.339Z,13.52
2023-01-21T10:00:57.017Z,10.32
2023-01-21T10:06:44.076Z,10.57
2023-01-21T10:12:28.004Z,14.23
2023-01-21T10:17:53.088Z,15.48
2023-01-21T10:23:11.678Z,7.53
2023-01-21T10:28:31.380Z,12.02
2023-01-21T10:33:35.828Z,11.18
2023-01-21T10:38:52.002Z,18.02
2023-01-21T10:44:04.164Z,17.45
2023-01-21T10:49:48.939Z,24.43
2023-01-21T10:55:16.543Z,25.98
2023-01-21T11:00:36.956Z,27.67
2023-01-21T11:06:00.046Z,24.25
2023-01-21T11:11:05.955Z,23.80
2023-01-21T11:16:38.005Z,24.67
2023-01-21T11:21:58.060Z,27.23
2023-01-21T11:27:01.956Z,23.52
2023-01-21T11:32:21.978Z,31.02
2023-01-21T11:37:28.220Z,31.77
2023-01-21T11:42:32.606Z,28.08
2023-01-21T11:47:50.197Z,26.08
2023-01-21T11:53:08.609Z,31.40
2023-01-21T11:58:22.919Z,26.08
2023-01-21T12:03:38.750Z,17.52
2023-01-21T12:08:42.266Z,19.48
2023-01-21T12:14:05.493Z,23.55
2023-01-21T12:19:33.110Z,30.00
2023-01-21T12:25:25.676Z,24.98
2023-01-21T12:31:03.196Z,23.52
2023-01-21T12:36:19.701Z,22.02
2023-01-21T12:41:33.567Z,21.33
2023-01-21T12:46:42.572Z,23.85
2023-01-21T12:51:54.747Z,22.58
2023-01-21T12:57:06.781Z,22.25
2023-01-21T13:02:33.573Z,21.13
2023-01-21T13:07:51.753Z,24.60
2023-01-21T13:13:22.833Z,18.60
2023-01-21T13:18:38.049Z,23.83
2023-01-21T13:23:51.764Z,22.30
2023-01-21T13:29:02.108Z,28.33
2023-01-21T13:34:34.155Z,22.48
2023-01-21T13:39:44.332Z,16.27
2023-01-21T13:45:14.497Z,14.13
2023-01-21T13:50:48.985Z,19.77
2023-01-21T13:56:19.936Z,22.92
2023-01-21T14:01:39.715Z,24.70
2023-01-21T14:07:02.645Z,19.65
2023-01-21T14:12:12.621Z,26.38
2023-01-21T14:17:27.502Z,24.88
2023-01-21T14:22:49.838Z,23.40
2023-01-21T14:28:10.394Z,23.15
2023-01-21T14:33:17.871Z,20.20
2023-01-21T14:38:33.863Z,21.42
2023-01-21T14:43:37.104Z,22.92
2023-01-21T14:48:42.101Z,21.55
2023-01-21T14:53:59.971Z,23.23
2023-01-21T14:59:29.981Z,23.58
2023-01-21T15:05:17.171Z,21.67
2023-01-21T15:10:26.885Z,17.75
2023-01-21T15:15:35.465Z,17.63
2023-01-21T15:20:51.288Z,19.85
2023-01-21T15:26:30.045Z,23.52
2023-01-21T15:31:45.090Z,16.08
2023-01-21T15:36:51.485Z,13.38
2023-01-21T15:42:13.251Z,12.85
2023-01-21T15:47:28.924Z,12.93
2023-01-21T15:52:32.354Z,12.48
2023-01-21T15:57:44.604Z,15.40
2023-01-21T16:03:27.759Z,13.65
2023-01-21T16:14:00.499Z,13.15
2023-01-21T16:19:09.881Z,13.82
2023-01-21T16:24:17.947Z,13.05
2023-01-21T16:29:22.026Z,14.77
2023-01-21T16:34:41.789Z,9.75
2023-01-21T16:39:45.692Z,12.93
2023-01-21T16:44:49.113Z,12.30
2023-01-21T16:49:52.925Z,15.43
2023-01-21T16:54:56.472Z,9.68
2023-01-21T16:59:59.973Z,10.35
2023-01-21T17:10:17.684Z,19.17
2023-01-21T17:15:43.722Z,19.25
2023-01-21T17:21:22.160Z,19.05
2023-01-21T17:26:47.537Z,16.55
2023-01-21T17:32:03.615Z,19.02
2023-01-21T17:37:43.985Z,15.90
2023-01-21T17:42:47.282Z,23.52
2023-01-21T17:53:28.457Z,12.00
2023-01-21T17:58:31.667Z,15.73
2023-01-21T18:03:35.051Z,12.32
2023-01-21T18:13:41.370Z,16.30
2023-01-21T18:18:44.774Z,12.68
2023-01-21T18:23:49.789Z,21.52
2023-01-21T18:29:05.348Z,18.58
2023-01-21T18:34:30.218Z,15.13
2023-01-21T18:39:33.404Z,15.32
2023-01-21T18:49:39.831Z,17.15
2023-01-21T18:54:55.800Z,20.55
2023-01-21T19:00:28.251Z,22.77
2023-01-21T19:05:35.837Z,24.85
2023-01-21T19:10:39.438Z,21.20
2023-01-21T19:15:43.051Z,25.05
2023-01-21T19:20:58.864Z,21.55
2023-01-21T19:26:21.853Z,19.48
2023-01-21T19:31:25.419Z,22.35
2023-01-21T19:36:28.756Z,24.73
2023-01-21T19:41:33.148Z,22.60
2023-01-21T19:46:36.555Z,20.15
2023-01-21T19:51:39.992Z,21.45
2023-01-21T19:56:43.403Z,24.98
2023-01-21T20:01:46.729Z,24.50
2023-01-21T20:06:50.335Z,21.95
2023-01-21T20:11:53.700Z,22.02
2023-01-21T20:22:13.215Z,17.88
2023-01-21T20:27:33.556Z,22.55
2023-01-21T20:37:39.853Z,25.10
2023-01-21T20:47:52.948Z,25.67
2023-01-21T20:52:56.201Z,18.90
2023-01-21T21:03:02.975Z,21.88
2023-01-21T21:23:16.693Z,24.38
2023-01-21T21:28:20.311Z,17.35
2023-01-21T21:33:24.399Z,25.48
2023-01-21T21:38:27.659Z,24.67
2023-01-21T21:43:30.912Z,22.88
2023-01-21T21:53:39.260Z,24.55
2023-01-21T21:58:43.942Z,19.90
2023-01-21T22:03:56.551Z,18.15
2023-01-21T22:09:17.006Z,19.05
2023-01-21T22:19:23.282Z,17.85
2023-01-21T22:29:29.889Z,20.17
2023-01-21T22:34:33.862Z,16.40
2023-01-21T22:39:38.635Z,16.33
2023-01-21T22:44:41.779Z,17.88
2023-01-21T22:49:44.969Z,19.67
2023-01-21T22:59:53.181Z,23.42
2023-01-21T23:04:56.515Z,20.85
2023-01-21T23:10:00.115Z,19.48
2023-01-21T23:15:03.486Z,21.10
2023-01-21T23:25:13.384Z,22.67
2023-01-21T23:30:25.555Z,21.83
2023-01-21T23:35:42.586Z,18.58
2023-01-21T23:40:47.522Z,20.58
2023-01-21T23:50:53.514Z,26.02
2023-01-21T23:56:08.044Z,16.10
